createdAt,value
2023-05-04T00:01:59.499Z,11.20
2023-05-04T00:04:26.198Z,11.07
2023-05-04T00:06:52.424Z,10.92
2023-05-04T00:09:18.558Z,10.76
2023-05-04T00:11:44.769Z,10.63
2023-05-04T00:14:10.976Z,10.49
2023-05-04T00:16:37.161Z,10.33
2023-05-04T00:19:03.419Z,10.22
2023-05-04T00:21:33.133Z,10.10
2023-05-04T00:23:59.274Z,10.02
2023-05-04T00:26:25.396Z,9.94
2023-05-04T00:28:54.424Z,9.85
2023-05-04T00:31:20.686Z,9.75
2023-05-04T00:33:46.870Z,9.65
2023-05-04T00:36:13.043Z,9.59
2023-05-04T00:38:39.222Z,9.48
2023-05-04T00:41:05.432Z,9.42
2023-05-04T00:43:31.611Z,9.37
2023-05-04T00:46:00.794Z,9.29
2023-05-04T00:48:26.953Z,9.23
2023-05-04T00:50:54.678Z,9.17
2023-05-04T00:53:20.841Z,9.09
2023-05-04T00:55:47.026Z,9.07
2023-05-04T00:58:15.909Z,9.01
2023-05-04T01:00:44.985Z,9.00
2023-05-04T01:03:11.269Z,8.95
2023-05-04T01:05:38.553Z,8.90
2023-05-04T01:08:04.746Z,8.87
2023-05-04T01:10:31.069Z,8.86
2023-05-04T01:12:57.316Z,8.84
2023-05-04T01:15:23.476Z,8.79
2023-05-04T01:17:52.640Z,8.73
2023-05-04T01:20:18.801Z,8.70
2023-05-04T01:22:44.952Z,8.66
2023-05-04T01:25:11.103Z,8.64
2023-05-04T01:27:37.251Z,8.62
2023-05-04T01:30:03.639Z,8.58
2023-05-04T01:32:30.060Z,8.57
2023-05-04T01:34:56.255Z,8.51
2023-05-04T01:37:28.500Z,8.48
2023-05-04T01:39:54.693Z,8.42
2023-05-04T01:42:20.899Z,8.42
2023-05-04T01:44:47.089Z,8.39
2023-05-04T01:47:13.255Z,8.36
2023-05-04T01:49:39.444Z,8.33
2023-05-04T01:52:05.611Z,8.28
2023-05-04T01:54:39.204Z,8.26
2023-05-04T01:57:05.405Z,8.25
2023-05-04T01:59:31.556Z,8.26
2023-05-04T02:01:57.798Z,8.22
2023-05-04T02:04:25.205Z,8.22
2023-05-04T02:06:51.358Z,8.36
2023-05-04T02:09:17.536Z,8.44
2023-05-04T02:11:43.685Z,8.40
2023-05-04T02:14:09.822Z,8.36
2023-05-04T02:16:37.291Z,8.41
2023-05-04T02:19:03.582Z,8.31
2023-05-04T02:21:29.760Z,8.29
2023-05-04T02:23:55.930Z,8.22
2023-05-04T02:26:22.045Z,8.15
2023-05-04T02:28:48.171Z,8.09
2023-05-04T02:31:14.385Z,8.06
2023-05-04T02:33:45.549Z,8.03
2023-05-04T02:36:12.891Z,8.00
2023-05-04T02:38:39.112Z,7.99
2023-05-04T02:41:05.307Z,7.83
2023-05-04T02:43:31.507Z,7.82
2023-05-04T02:46:00.871Z,7.75
2023-05-04T02:48:27.062Z,7.66
2023-05-04T02:50:53.248Z,7.63
2023-05-04T02:53:19.383Z,7.54
2023-05-04T02:55:45.611Z,7.54
2023-05-04T02:58:14.650Z,7.52
2023-05-04T03:00:40.778Z,7.46
2023-05-04T03:03:06.970Z,7.45
2023-05-04T03:05:33.130Z,7.39
2023-05-04T03:07:59.250Z,7.37
2023-05-04T03:10:25.458Z,7.33
2023-05-04T03:12:51.654Z,7.30
2023-05-04T03:15:17.799Z,7.24
2023-05-04T03:17:47.171Z,7.24
2023-05-04T03:20:13.384Z,7.28
2023-05-04T03:22:39.585Z,7.18
2023-05-04T03:25:05.797Z,7.19
2023-05-04T03:27:32.044Z,7.13
2023-05-04T03:29:58.281Z,7.11
2023-05-04T03:32:24.524Z,7.08
2023-05-04T03:34:50.743Z,7.09
2023-05-04T03:37:16.969Z,7.07
2023-05-04T03:39:43.096Z,7.03
2023-05-04T03:42:13.862Z,7.01
2023-05-04T03:44:40.057Z,7.00
2023-05-04T03:47:06.225Z,6.95
2023-05-04T03:49:32.386Z,6.95
2023-05-04T03:51:58.580Z,6.96
2023-05-04T03:54:24.747Z,6.96
2023-05-04T03:56:52.331Z,7.00
2023-05-04T03:59:18.534Z,7.01
2023-05-04T04:01:44.656Z,7.00
2023-05-04T04:04:15.008Z,6.99
2023-05-04T04:06:43.221Z,7.00
2023-05-04T04:09:09.664Z,7.05
2023-05-04T04:11:35.794Z,7.07
2023-05-04T04:14:01.969Z,7.11
2023-05-04T04:16:31.245Z,7.17
2023-05-04T04:18:58.396Z,7.21
2023-05-04T04:21:24.733Z,7.26
2023-05-04T04:23:50.883Z,7.31
2023-05-04T04:26:17.033Z,7.39
2023-05-04T04:28:43.193Z,7.46
2023-05-04T04:31:09.459Z,7.55
2023-05-04T04:33:35.706Z,7.65
2023-05-04T04:36:01.879Z,7.74
2023-05-04T04:38:28.091Z,7.83
2023-05-04T04:40:56.977Z,7.94
2023-05-04T04:43:26.008Z,8.06
2023-05-04T04:45:52.179Z,8.16
2023-05-04T04:48:18.413Z,8.29
2023-05-04T04:50:50.576Z,8.42
